createdAt,value
2023-04-19T00:00:09.017Z,99752.10
2023-04-19T00:02:38.178Z,99748.88
2023-04-19T00:05:06.604Z,99751.89
2023-04-19T00:07:36.312Z,99751.05
2023-04-19T00:10:04.477Z,99750.30
2023-04-19T00:12:32.590Z,99749.14
2023-04-19T00:15:00.398Z,99746.11
2023-04-19T00:17:29.137Z,99744.45
2023-04-19T00:19:57.741Z,99745.50
2023-04-19T00:22:26.254Z,99744.13
2023-04-19T00:24:54.158Z,99743.64
2023-04-19T00:27:21.900Z,99739.09
2023-04-19T00:29:49.679Z,99741.67
2023-04-19T00:32:17.575Z,99738.71
2023-04-19T00:34:45.462Z,99733.45
2023-04-19T00:37:13.343Z,99728.70
2023-04-19T00:39:41.190Z,99727.64
2023-04-19T00:42:09.820Z,99724.64
2023-04-19T00:44:37.688Z,99724.62
2023-04-19T00:47:05.702Z,99720.91
2023-04-19T00:49:34.109Z,99720.92
2023-04-19T00:52:02.012Z,99718.71
2023-04-19T00:54:29.988Z,99721.48
2023-04-19T00:56:58.485Z,99712.14
2023-04-19T00:59:26.217Z,99714.20
2023-04-19T01:01:54.168Z,99712.99
2023-04-19T01:04:23.210Z,99713.03
2023-04-19T01:06:51.455Z,99718.83
2023-04-19T01:09:19.409Z,99710.80
2023-04-19T01:11:47.442Z,99708.52
2023-04-19T01:14:16.294Z,99710.05
2023-04-19T01:16:48.113Z,99706.73
2023-04-19T01:19:16.848Z,99701.94
2023-04-19T01:21:46.505Z,99697.52
2023-04-19T01:24:14.520Z,99697.90
2023-04-19T01:26:42.846Z,99697.80
2023-04-19T01:29:10.718Z,99699.08
2023-04-19T01:31:39.016Z,99698.34
2023-04-19T01:34:07.018Z,99700.52
2023-04-19T01:36:35.072Z,99700.27
2023-04-19T01:39:02.978Z,99699.99
2023-04-19T01:41:32.482Z,99696.81
2023-04-19T01:44:01.215Z,99694.33
2023-04-19T01:46:29.418Z,99689.50
2023-04-19T01:48:57.432Z,99691.89
2023-04-19T01:51:25.958Z,99687.73
2023-04-19T01:53:54.749Z,99685.88
2023-04-19T01:56:24.095Z,99685.83
2023-04-19T01:58:51.890Z,99685.17
2023-04-19T02:01:20.221Z,99685.06
2023-04-19T02:03:48.292Z,99682.66
2023-04-19T02:06:16.274Z,99683.08
2023-04-19T02:08:44.021Z,99681.33
2023-04-19T02:11:14.586Z,99680.14
2023-04-19T02:13:42.986Z,99678.25
2023-04-19T02:16:10.983Z,99668.88
2023-04-19T02:18:39.479Z,99665.52
2023-04-19T02:21:07.861Z,99664.45
2023-04-19T02:23:35.746Z,99662.09
2023-04-19T02:26:03.721Z,99664.23
2023-04-19T02:28:31.912Z,99664.83
2023-04-19T02:30:59.772Z,99665.59
2023-04-19T02:33:29.239Z,99667.01
2023-04-19T02:35:57.090Z,99666.31
2023-04-19T02:38:24.902Z,99664.05
2023-04-19T02:40:54.902Z,99664.92
2023-04-19T02:43:22.751Z,99668.02
2023-04-19T02:45:51.419Z,99668.48
2023-04-19T02:48:19.939Z,99672.02
2023-04-19T02:50:48.254Z,99673.34
2023-04-19T02:53:16.219Z,99674.67
2023-04-19T02:55:44.347Z,99677.02
2023-04-19T02:58:16.442Z,99677.13
2023-04-19T03:00:53.148Z,99673.42
2023-04-19T03:03:22.748Z,99678.46
2023-04-19T03:05:50.929Z,99679.45
2023-04-19T03:08:19.552Z,99681.02
2023-04-19T03:10:47.428Z,99682.21
2023-04-19T03:13:16.394Z,99679.73
2023-04-19T03:15:44.306Z,99679.38
2023-04-19T03:18:12.859Z,99673.81
2023-04-19T03:21:14.709Z,99675.02
2023-04-19T03:23:57.049Z,99671.39
2023-04-19T03:26:25.819Z,99668.80
2023-04-19T03:28:55.216Z,99664.98
2023-04-19T03:31:35.841Z,99660.52
2023-04-19T03:34:04.368Z,99663.31
2023-04-19T03:36:39.071Z,99659.29
2023-04-19T03:39:07.020Z,99654.37
2023-04-19T03:41:36.172Z,99658.85
2023-04-19T03:44:09.499Z,99654.93
2023-04-19T03:46:38.459Z,99654.63
2023-04-19T03:49:06.751Z,99652.40
2023-04-19T03:51:35.993Z,99652.14
2023-04-19T03:54:04.541Z,99656.05
2023-04-19T03:56:35.382Z,99660.13
2023-04-19T03:59:03.196Z,99660.39
2023-04-19T04:01:31.497Z,99659.61
2023-04-19T04:04:00.110Z,99659.19
2023-04-19T04:06:30.245Z,99660.11
2023-04-19T04:08:59.204Z,99658.45
2023-04-19T04:11:27.454Z,99661.60
2023-04-19T04:13:56.044Z,99659.91
2023-04-19T04:16:27.447Z,99661.95
2023-04-19T04:18:55.852Z,99663.46
2023-04-19T04:21:27.355Z,99660.92
2023-04-19T04:23:56.924Z,99657.88
2023-04-19T04:26:34.033Z,99656.04
2023-04-19T04:29:25.062Z,99659.05
2023-04-19T04:31:54.187Z,99658.61
2023-04-19T04:34:25.932Z,99657.84
2023-04-19T04:36:59.521Z,99657.84
2023-04-19T04:39:27.402Z,99663.25
2023-04-19T04:41:57.662Z,99662.94
2023-04-19T04:44:26.099Z,99664.66
2023-04-19T04:46:54.280Z,99658.66
2023-04-19T04:49:25.480Z,99662.20
2023-04-19T04:51:53.575Z,99660.50
2023-04-19T04:54:22.013Z,99656.61
2023-04-19T04:56:50.054Z,99653.73
2023-04-19T04:59:19.031Z,99655.65
2023-04-19T05:01:48.960Z,99660.30
2023-04-19T05:04:17.702Z,99662.91
2023-04-19T05:06:46.051Z,99661.70
2023-04-19T05:09:15.943Z,99668.52
2023-04-19T05:11:43.750Z,99667.41
2023-04-19T05:14:12.845Z,99667.11
2023-04-19T05:16:40.792Z,99669.13
2023-04-19T05:19:08.664Z,99669.98
2023-04-19T05:21:40.719Z,99673.30
2023-04-19T05:24:10.141Z,99673.59
2023-04-19T05:26:38.173Z,99673.28
2023-04-19T05:29:06.249Z,99672.73
2023-04-19T05:31:52.224Z,99674.02
2023-04-19T05:34:26.617Z,99673.85
2023-04-19T05:36:54.812Z,99673.20
2023-04-19T05:39:22.697Z,99676.52
2023-04-19T05:41:50.698Z,99672.63
2023-04-19T05:44:18.709Z,99671.20
2023-04-19T05:46:46.469Z,99670.91
2023-04-19T05:49:16.095Z,99667.89
2023-04-19T05:52:15.841Z,99669.55
2023-04-19T05:54:56.119Z,99670.34
2023-04-19T05:57:23.936Z,99671.59
2023-04-19T05:59:51.842Z,99673.42
2023-04-19T06:02:22.696Z,99675.98
2023-04-19T06:04:50.822Z,99674.02
2023-04-19T06:07:31.151Z,99667.80
2023-04-19T06:10:00.687Z,99666.70
2023-04-19T06:12:28.722Z,99666.51
2023-04-19T06:14:56.632Z,99669.20
2023-04-19T06:17:25.776Z,99666.56
2023-04-19T06:19:53.872Z,99662.17
2023-04-19T06:22:21.662Z,99661.16
2023-04-19T06:24:49.553Z,99662.70
2023-04-19T06:27:17.733Z,99666.17
2023-04-19T06:29:45.853Z,99668.98
2023-04-19T06:32:13.617Z,99669.08
2023-04-19T06:34:41.459Z,99670.02
2023-04-19T06:37:09.408Z,99666.34
2023-04-19T06:39:37.301Z,99669.03
2023-04-19T06:42:05.571Z,99666.66
2023-04-19T06:44:34.779Z,99668.95
2023-04-19T06:47:02.647Z,99667.33
2023-04-19T06:49:31.885Z,99667.00
2023-04-19T06:51:59.897Z,99673.13
2023-04-19T06:54:27.874Z,99667.61
2023-04-19T06:56:56.171Z,99666.37
2023-04-19T06:59:25.274Z,99664.95
2023-04-19T07:01:53.088Z,99658.65
2023-04-19T07:04:21.284Z,99663.67
2023-04-19T07:06:50.063Z,99662.64
2023-04-19T07:09:17.836Z,99669.00
2023-04-19T07:11:47.651Z,99666.05
2023-04-19T07:14:15.771Z,99667.14
2023-04-19T07:16:43.861Z,99669.34
2023-04-19T07:19:11.887Z,99668.91
2023-04-19T07:21:39.815Z,99670.44
2023-04-19T07:24:07.577Z,99671.46
2023-04-19T07:26:35.635Z,99668.80
2023-04-19T07:29:03.687Z,99671.39
2023-04-19T07:31:31.710Z,99665.61
2023-04-19T07:33:59.409Z,99668.94
2023-04-19T07:36:27.805Z,99666.98
2023-04-19T07:38:55.502Z,99666.22
2023-04-19T07:41:23.717Z,99663.54
2023-04-19T07:43:51.499Z,99663.88
2023-04-19T07:46:19.337Z,99666.44
2023-04-19T07:48:47.183Z,99663.55
2023-04-19T07:51:16.660Z,99664.20
2023-04-19T07:53:44.463Z,99658.60
2023-04-19T07:56:13.048Z,99662.14
2023-04-19T07:58:41.865Z,99659.88
2023-04-19T08:01:10.213Z,99661.06
2023-04-19T08:03:38.975Z,99656.71
2023-04-19T08:06:10.130Z,99653.93
2023-04-19T08:08:37.942Z,99645.34
2023-04-19T08:11:06.323Z,99649.17
2023-04-19T08:13:34.322Z,99644.66
2023-04-19T08:18:34.055Z,99640.66
2023-04-19T08:21:02.084Z,99646.00
2023-04-19T08:23:38.030Z,99640.66
2023-04-19T08:26:15.478Z,99644.10
2023-04-19T08:28:43.427Z,99640.04
2023-04-19T08:31:11.403Z,99640.27
2023-04-19T08:33:40.086Z,99634.66
2023-04-19T08:36:08.673Z,99633.20
2023-04-19T08:38:38.970Z,99632.05
2023-04-19T08:41:06.667Z,99629.11
2023-04-19T08:43:35.695Z,99625.58
2023-04-19T08:46:04.264Z,99625.29
2023-04-19T08:48:33.408Z,99619.52
2023-04-19T08:51:05.596Z,99616.67
2023-04-19T08:53:34.752Z,99612.08
2023-04-19T08:58:51.963Z,99612.69
2023-04-19T09:01:34.962Z,99612.34
2023-04-19T09:04:21.609Z,99616.44
2023-04-19T09:06:53.815Z,99616.19
2023-04-19T09:11:53.116Z,99613.90
2023-04-19T09:14:21.258Z,99613.92
2023-04-19T09:16:49.488Z,99612.22
2023-04-19T09:19:24.338Z,99616.84
2023-04-19T09:21:54.712Z,99618.23
2023-04-19T09:25:13.951Z,99627.92
2023-04-19T09:27:28.111Z,99627.52
2023-04-19T09:29:59.602Z,99627.13
2023-04-19T09:32:28.082Z,99626.27
2023-04-19T09:34:59.619Z,99621.84
2023-04-19T09:39:58.480Z,99619.48
2023-04-19T09:48:00.640Z,99615.81
2023-04-19T09:50:28.871Z,99614.19
2023-04-19T09:52:57.579Z,99611.88
2023-04-19T09:55:29.025Z,99609.70
2023-04-19T09:57:57.633Z,99607.66
2023-04-19T10:00:25.586Z,99608.55
2023-04-19T10:02:58.413Z,99609.56
2023-04-19T10:05:26.802Z,99606.17
2023-04-19T10:07:59.526Z,99608.02
2023-04-19T10:10:41.426Z,99607.73
2023-04-19T10:15:51.101Z,99605.95
2023-04-19T10:18:21.620Z,99608.31
2023-04-19T10:20:57.361Z,99605.41
2023-04-19T10:23:25.237Z,99608.86
2023-04-19T10:25:57.105Z,99607.68
2023-04-19T10:28:24.818Z,99608.23
2023-04-19T10:31:01.642Z,99608.85
2023-04-19T10:33:36.879Z,99609.67
2023-04-19T10:36:07.501Z,99610.00
2023-04-19T10:38:36.709Z,99610.02
2023-04-19T10:41:05.499Z,99610.98
2023-04-19T10:43:34.550Z,99603.70
2023-04-19T10:46:09.736Z,99601.19
2023-04-19T10:48:38.774Z,99599.21
2023-04-19T10:51:16.748Z,99601.20
2023-04-19T10:53:50.975Z,99600.24
2023-04-19T10:56:23.099Z,99606.05
2023-04-19T10:59:11.702Z,99610.88
2023-04-19T11:01:59.876Z,99608.30
2023-04-19T11:04:31.322Z,99610.92
2023-04-19T11:07:03.112Z,99615.31
2023-04-19T11:09:42.328Z,99616.29
2023-04-19T11:12:13.778Z,99617.61
2023-04-19T11:14:42.271Z,99619.76
2023-04-19T11:17:19.414Z,99628.83
2023-04-19T11:19:53.917Z,99628.98
2023-04-19T11:22:45.190Z,99631.27
2023-04-19T11:25:13.937Z,99624.50
2023-04-19T11:27:43.102Z,99617.20
2023-04-19T11:30:14.334Z,99621.13
2023-04-19T11:33:01.031Z,99627.46
2023-04-19T11:35:30.484Z,99626.34
2023-04-19T11:37:58.702Z,99621.61
2023-04-19T11:40:26.818Z,99620.46
2023-04-19T11:42:55.531Z,99635.79
2023-04-19T11:45:30.187Z,99628.89
2023-04-19T11:47:59.000Z,99626.96
2023-04-19T11:50:30.623Z,99630.17
2023-04-19T11:52:59.167Z,99630.32
2023-04-19T11:55:26.951Z,99631.92
2023-04-19T11:57:55.007Z,99631.45
2023-04-19T12:00:30.703Z,99633.21
2023-04-19T12:02:58.995Z,99631.61
2023-04-19T12:05:27.547Z,99631.85
2023-04-19T12:08:05.214Z,99629.92
2023-04-19T12:10:33.093Z,99628.55
2023-04-19T12:13:00.948Z,99626.02
2023-04-19T12:15:42.557Z,99627.96
2023-04-19T12:18:10.526Z,99629.89
2023-04-19T12:20:38.944Z,99630.09
2023-04-19T12:23:11.195Z,99633.37
2023-04-19T12:25:39.263Z,99629.98
2023-04-19T12:28:07.259Z,99629.13
2023-04-19T12:30:36.461Z,99629.02
2023-04-19T12:33:04.573Z,99633.36
2023-04-19T12:35:34.130Z,99632.69
2023-04-19T12:38:02.917Z,99635.66
2023-04-19T12:40:31.064Z,99632.98
2023-04-19T12:42:58.799Z,99638.77
2023-04-19T12:45:26.899Z,99642.63
2023-04-19T12:47:54.740Z,99643.91
2023-04-19T12:50:22.707Z,99645.22
2023-04-19T12:52:51.992Z,99644.37
2023-04-19T12:55:20.131Z,99647.41
2023-04-19T12:57:48.169Z,99645.90
2023-04-19T13:00:17.653Z,99646.94
2023-04-19T13:02:45.938Z,99648.07
2023-04-19T13:05:13.866Z,99653.68
2023-04-19T13:07:41.884Z,99652.27
2023-04-19T13:10:09.938Z,99650.86
2023-04-19T13:12:38.050Z,99651.05
2023-04-19T13:15:06.249Z,99654.35
2023-04-19T13:17:35.789Z,99653.33
2023-04-19T13:20:04.434Z,99652.61
2023-04-19T13:22:32.759Z,99652.55
2023-04-19T13:25:00.624Z,99651.47
2023-04-19T13:27:28.813Z,99652.63
2023-04-19T13:29:56.901Z,99650.20
2023-04-19T13:32:25.005Z,99651.83
2023-04-19T13:34:53.089Z,99651.92
2023-04-19T13:37:20.890Z,99657.98
2023-04-19T13:39:48.964Z,99663.88
2023-04-19T13:42:16.765Z,99656.67
2023-04-19T13:44:44.650Z,99655.78
2023-04-19T13:47:12.434Z,99659.63
2023-04-19T13:49:40.268Z,99653.70
2023-04-19T13:52:08.258Z,99651.33
2023-04-19T13:54:35.986Z,99652.60
2023-04-19T13:57:03.869Z,99651.99
2023-04-19T13:59:31.697Z,99650.76
2023-04-19T14:01:59.895Z,99654.73
2023-04-19T14:04:27.850Z,99656.45
2023-04-19T14:06:55.988Z,99662.70
2023-04-19T14:09:24.050Z,99659.77
2023-04-19T14:11:51.834Z,99661.89
2023-04-19T14:14:19.744Z,99663.81
2023-04-19T14:16:47.959Z,99663.27
2023-04-19T14:19:15.793Z,99666.21
2023-04-19T14:21:43.614Z,99665.16
2023-04-19T14:24:11.355Z,99669.02
2023-04-19T14:26:39.199Z,99670.98
2023-04-19T14:29:06.982Z,99669.92
2023-04-19T14:31:34.925Z,99671.75
2023-04-19T14:34:03.148Z,99672.13
2023-04-19T14:36:31.347Z,99676.27
2023-04-19T14:38:59.150Z,99677.64
2023-04-19T14:41:27.216Z,99678.71
2023-04-19T14:43:56.227Z,99683.41
2023-04-19T14:46:24.061Z,99688.10
2023-04-19T14:48:52.085Z,99683.44
2023-04-19T14:51:19.843Z,99681.91
2023-04-19T14:53:47.786Z,99685.70
2023-04-19T14:56:15.572Z,99684.29
2023-04-19T14:58:43.438Z,99681.08
2023-04-19T15:01:14.189Z,99677.99
2023-04-19T15:03:43.441Z,99677.71
2023-04-19T15:06:11.511Z,99679.23
2023-04-19T15:08:40.496Z,99680.40
2023-04-19T15:11:08.653Z,99683.84
2023-04-19T15:13:36.572Z,99683.61
2023-04-19T15:16:05.863Z,99679.95
2023-04-19T15:18:33.899Z,99681.70
2023-04-19T15:21:04.970Z,99677.90
2023-04-19T15:23:33.237Z,99687.64
2023-04-19T15:26:00.986Z,99682.24
2023-04-19T15:28:29.024Z,99679.73
2023-04-19T15:31:00.323Z,99678.23
2023-04-19T15:33:28.371Z,99673.42
2023-04-19T15:35:56.425Z,99674.05
2023-04-19T15:38:24.966Z,99673.79
2023-04-19T15:40:53.811Z,99671.70
2023-04-19T15:43:22.131Z,99671.91
2023-04-19T15:45:50.273Z,99670.48
2023-04-19T15:48:18.241Z,99670.61
2023-04-19T15:50:45.994Z,99672.79
2023-04-19T15:53:13.811Z,99674.68
2023-04-19T15:55:41.789Z,99675.69
2023-04-19T15:58:09.566Z,99674.15
2023-04-19T16:00:37.334Z,99670.55
2023-04-19T16:03:05.369Z,99665.96
2023-04-19T16:05:34.852Z,99668.84
2023-04-19T16:08:09.385Z,99670.31
2023-04-19T16:10:37.482Z,99670.98
2023-04-19T16:13:08.406Z,99673.67
2023-04-19T16:15:36.232Z,99675.16
2023-04-19T16:18:04.284Z,99678.79
2023-04-19T16:20:32.190Z,99672.45
2023-04-19T16:23:03.397Z,99671.91
2023-04-19T16:25:31.501Z,99673.33
2023-04-19T16:27:59.547Z,99678.78
2023-04-19T16:30:27.388Z,99677.69
2023-04-19T16:32:55.664Z,99677.16
2023-04-19T16:35:23.951Z,99682.69
2023-04-19T16:37:54.037Z,99682.36
2023-04-19T16:40:23.139Z,99683.00
2023-04-19T16:42:51.085Z,99682.03
2023-04-19T16:45:18.954Z,99686.99
2023-04-19T16:47:46.925Z,99682.18
2023-04-19T16:50:14.788Z,99685.42
2023-04-19T16:52:42.654Z,99682.16
2023-04-19T16:55:10.379Z,99686.53
2023-04-19T16:57:38.482Z,99695.59
2023-04-19T17:00:10.299Z,99697.67
2023-04-19T17:02:39.090Z,99700.60
2023-04-19T17:05:07.398Z,99705.95
2023-04-19T17:07:36.868Z,99708.88
2023-04-19T17:10:05.062Z,99715.95
2023-04-19T17:12:33.287Z,99716.45
2023-04-19T17:15:01.248Z,99717.04
2023-04-19T17:17:29.378Z,99722.27
2023-04-19T17:19:57.801Z,99720.81
2023-04-19T17:22:25.821Z,99724.95
2023-04-19T17:24:55.929Z,99729.67
2023-04-19T17:27:23.681Z,99728.96
2023-04-19T17:29:51.478Z,99732.20
2023-04-19T17:32:19.308Z,99733.96
2023-04-19T17:34:47.267Z,99733.29
2023-04-19T17:37:15.071Z,99738.53
2023-04-19T17:39:43.047Z,99739.38
2023-04-19T17:42:10.763Z,99747.23
2023-04-19T17:44:38.486Z,99750.58
2023-04-19T17:47:06.706Z,99751.39
2023-04-19T17:49:34.643Z,99755.92
2023-04-19T17:52:02.496Z,99755.09
2023-04-19T17:54:30.534Z,99756.87
2023-04-19T17:56:59.449Z,99760.34
2023-04-19T17:59:27.498Z,99760.27
2023-04-19T18:01:56.765Z,99763.84
2023-04-19T18:04:24.671Z,99763.95
2023-04-19T18:06:52.758Z,99763.39
2023-04-19T18:09:20.855Z,99767.81
2023-04-19T18:11:48.652Z,99771.19
2023-04-19T18:14:16.522Z,99767.13
2023-04-19T18:16:44.603Z,99768.56
2023-04-19T18:19:12.388Z,99766.67
2023-04-19T18:21:40.284Z,99769.00
2023-04-19T18:24:08.159Z,99771.95
2023-04-19T18:26:36.507Z,99776.59
2023-04-19T18:29:04.334Z,99774.52
2023-04-19T18:31:32.141Z,99774.26
2023-04-19T18:34:00.489Z,99779.13
2023-04-19T18:36:28.934Z,99775.90
2023-04-19T18:38:56.831Z,99779.25
2023-04-19T18:41:24.708Z,99780.74
2023-04-19T18:44:25.797Z,99777.67
2023-04-19T18:46:42.525Z,99780.24
2023-04-19T18:49:10.471Z,99777.38
2023-04-19T18:51:38.469Z,99783.06
2023-04-19T18:54:06.333Z,99784.09
2023-04-19T18:59:05.025Z,99784.52
2023-04-19T19:01:33.418Z,99790.67
2023-04-19T19:04:23.966Z,99791.77
2023-04-19T19:06:50.113Z,99795.64
2023-04-19T19:09:18.462Z,99789.27
2023-04-19T19:11:55.997Z,99789.34
2023-04-19T19:14:24.926Z,99789.45
2023-04-19T19:16:53.133Z,99785.34
2023-04-19T19:19:22.669Z,99782.23
2023-04-19T19:21:52.219Z,99788.80
2023-04-19T19:24:20.053Z,99784.94
2023-04-19T19:26:48.335Z,99786.49
2023-04-19T19:29:16.722Z,99784.04
2023-04-19T19:31:44.615Z,99784.48
2023-04-19T19:34:23.365Z,99782.80
2023-04-19T19:36:55.538Z,99780.43
2023-04-19T19:39:23.397Z,99780.34
2023-04-19T19:42:05.487Z,99780.73
2023-04-19T19:44:34.604Z,99778.02
2023-04-19T19:47:02.558Z,99774.27
2023-04-19T19:49:45.663Z,99774.79
2023-04-19T19:52:22.030Z,99772.75
2023-04-19T19:54:49.737Z,99773.73
2023-04-19T19:59:54.551Z,99770.02
2023-04-19T20:02:24.482Z,99769.14
2023-04-19T20:04:52.688Z,99774.12
2023-04-19T20:09:52.482Z,99772.37
2023-04-19T20:12:20.944Z,99769.93
2023-04-19T20:14:48.805Z,99774.70
2023-04-19T20:17:16.804Z,99776.48
2023-04-19T20:19:45.047Z,99775.58
2023-04-19T20:22:12.774Z,99771.85
2023-04-19T20:24:42.230Z,99772.48
2023-04-19T20:27:10.032Z,99769.82
2023-04-19T20:29:37.810Z,99771.02
2023-04-19T20:32:05.965Z,99767.45
2023-04-19T20:34:34.198Z,99765.95
2023-04-19T20:37:03.989Z,99767.73
2023-04-19T20:39:31.860Z,99774.08
2023-04-19T20:41:59.702Z,99772.96
2023-04-19T20:44:27.651Z,99775.08
2023-04-19T20:46:56.278Z,99773.17
2023-04-19T20:49:24.100Z,99773.91
2023-04-19T20:51:52.006Z,99769.06
2023-04-19T20:54:19.867Z,99767.27
2023-04-19T20:56:47.757Z,99768.16
2023-04-19T20:59:15.807Z,99767.75
2023-04-19T21:01:43.940Z,99762.89
2023-04-19T21:04:12.221Z,99756.98
2023-04-19T21:06:40.366Z,99758.52
2023-04-19T21:09:08.404Z,99755.16
2023-04-19T21:11:36.298Z,99755.34
2023-04-19T21:14:04.517Z,99754.61
2023-04-19T21:16:33.745Z,99752.92
2023-04-19T21:19:01.934Z,99753.23
2023-04-19T21:21:32.471Z,99753.42
2023-04-19T21:24:00.476Z,99757.04
2023-04-19T21:26:28.392Z,99756.88
2023-04-19T21:28:56.169Z,99755.06
2023-04-19T21:31:23.950Z,99753.42
2023-04-19T21:33:51.838Z,99755.11
2023-04-19T21:36:19.565Z,99752.79
2023-04-19T21:38:47.293Z,99756.52
2023-04-19T21:41:15.041Z,99752.91
2023-04-19T21:43:42.898Z,99751.30
2023-04-19T21:46:11.061Z,99748.79
2023-04-19T21:48:39.569Z,99747.98
2023-04-19T21:51:07.709Z,99743.12
2023-04-19T21:53:36.332Z,99743.35
2023-04-19T21:56:04.441Z,99741.94
2023-04-19T21:58:32.397Z,99740.81
2023-04-19T22:01:00.676Z,99735.16
2023-04-19T22:03:28.743Z,99734.05
2023-04-19T22:06:01.801Z,99728.31
2023-04-19T22:08:32.162Z,99727.70
2023-04-19T22:11:01.197Z,99722.57
2023-04-19T22:13:30.179Z,99723.34
2023-04-19T22:16:01.229Z,99715.70
2023-04-19T22:18:29.238Z,99719.58
2023-04-19T22:20:57.211Z,99718.93
2023-04-19T22:23:25.074Z,99716.75
2023-04-19T22:25:52.890Z,99717.70
2023-04-19T22:28:20.759Z,99714.94
2023-04-19T22:30:48.643Z,99711.05
2023-04-19T22:33:16.630Z,99709.71
2023-04-19T22:35:44.616Z,99704.52
2023-04-19T22:38:12.490Z,99702.77
2023-04-19T22:40:40.463Z,99701.39
2023-04-19T22:43:08.311Z,99697.06
2023-04-19T22:45:36.101Z,99695.20
2023-04-19T22:48:04.201Z,99692.27
2023-04-19T22:50:32.375Z,99692.52
2023-04-19T22:53:00.404Z,99688.72
2023-04-19T22:55:28.272Z,99686.52
2023-04-19T22:57:56.386Z,99684.66
2023-04-19T23:00:24.150Z,99681.17
2023-04-19T23:02:52.080Z,99680.29
2023-04-19T23:05:20.165Z,99678.85
2023-04-19T23:07:49.686Z,99677.23
2023-04-19T23:10:18.436Z,99673.40
2023-04-19T23:12:49.392Z,99676.27
2023-04-19T23:15:17.225Z,99668.94
2023-04-19T23:17:45.225Z,99664.02
2023-04-19T23:20:13.269Z,99662.16
2023-04-19T23:22:41.250Z,99661.95
2023-04-19T23:25:09.175Z,99657.97
2023-04-19T23:27:37.031Z,99657.26
2023-04-19T23:30:05.646Z,99658.05
2023-04-19T23:32:33.542Z,99658.20
2023-04-19T23:35:01.287Z,99654.83
2023-04-19T23:37:29.472Z,99654.80
2023-04-19T23:39:57.481Z,99652.70
2023-04-19T23:42:25.261Z,99650.58
2023-04-19T23:44:55.211Z,99656.05
2023-04-19T23:47:23.254Z,99653.20
2023-04-19T23:49:51.419Z,99650.30
2023-04-19T23:52:22.665Z,99649.08
2023-04-19T23:54:50.594Z,99651.64
2023-04-19T23:57:18.687Z,99648.14
2023-04-19T23:59:46.544Z,99648.92
